Time;durP1;ratioP1;P1;durP2;ratioP2;P2;SDS_P1;SDS_P2;PMS_P1;PMS_P2;Temp;Humidity;BMP_temperature;BMP_pressure;BME280_temperature;BME280_humidity;BME280_pressure;Samples;Min_cycle;Max_cycle;Signal;HPM_P1;HPM_P2
2023/04/20 00:01:02;;;;;;;7.30;4.07;;;8.40;45.60;;;;;;6218615;23;20253;-71
2023/04/20 00:03:28;;;;;;;5.40;4.10;;;8.40;45.70;;;;;;6217840;23;20162;-70
2023/04/20 00:05:53;;;;;;;7.73;4.03;;;8.20;45.60;;;;;;6217900;23;20738;-70
2023/04/20 00:08:19;;;;;;;6.17;3.43;;;8.20;45.80;;;;;;6218565;23;20562;-72
2023/04/20 00:10:45;;;;;;;4.57;3.40;;;8.30;45.60;;;;;;6222314;23;20158;-71
2023/04/20 00:13:11;;;;;;;5.10;3.80;;;8.30;45.60;;;;;;6223051;23;20185;-71
2023/04/20 00:15:37;;;;;;;4.07;2.97;;;8.30;45.50;;;;;;6220452;23;20146;-70
2023/04/20 00:18:03;;;;;;;4.43;3.40;;;8.30;45.20;;;;;;6219566;23;20148;-71
2023/04/20 00:20:28;;;;;;;6.83;3.40;;;8.20;45.30;;;;;;6219000;23;20674;-72
2023/04/20 00:22:54;;;;;;;6.77;3.47;;;8.20;45.50;;;;;;6219750;23;20135;-71
2023/04/20 00:25:20;;;;;;;10.90;4.60;;;8.10;45.60;;;;;;6219643;23;20158;-70
2023/04/20 00:27:45;;;;;;;7.90;3.00;;;8.20;45.50;;;;;;6219905;23;20126;-70
2023/04/20 00:30:12;;;;;;;4.03;3.43;;;8.20;45.30;;;;;;6192629;23;20630;-70
2023/04/20 00:32:37;;;;;;;4.77;3.37;;;8.30;45.00;;;;;;6219509;23;20165;-70
2023/04/20 00:35:03;;;;;;;13.23;3.80;;;8.30;45.00;;;;;;6219736;23;20619;-72
2023/04/20 00:37:29;;;;;;;8.03;4.10;;;8.30;45.10;;;;;;6220084;23;20138;-70
2023/04/20 00:39:56;;;;;;;3.90;3.50;;;8.30;44.90;;;;;;6221559;23;20407;-72
2023/04/20 00:42:23;;;;;;;5.80;3.20;;;8.40;44.90;;;;;;6220506;23;20596;-69
2023/04/20 00:44:50;;;;;;;6.40;3.67;;;8.30;44.80;;;;;;6193051;23;20362;-71
2023/04/20 00:47:16;;;;;;;9.13;4.27;;;8.30;44.80;;;;;;6219089;23;20388;-70
2023/04/20 00:49:41;;;;;;;5.10;3.70;;;8.30;45.00;;;;;;6218696;23;20562;-70
2023/04/20 00:52:07;;;;;;;5.23;3.40;;;8.30;44.80;;;;;;6193052;23;20146;-69
2023/04/20 00:54:34;;;;;;;4.63;2.77;;;8.30;44.80;;;;;;6193056;23;20228;-71
2023/04/20 00:57:01;;;;;;;6.40;3.50;;;8.20;45.00;;;;;;6192885;23;20381;-71
2023/04/20 00:59:27;;;;;;;4.60;3.07;;;8.20;45.10;;;;;;6218937;23;20388;-70
2023/04/20 01:01:52;;;;;;;5.40;3.73;;;8.20;45.30;;;;;;6193176;23;20490;-70
2023/04/20 01:04:18;;;;;;;5.57;3.57;;;8.20;45.50;;;;;;6219093;23;20146;-69
2023/04/20 01:06:44;;;;;;;7.87;4.20;;;8.30;45.30;;;;;;6192638;23;20161;-70
2023/04/20 01:09:11;;;;;;;7.00;3.70;;;8.40;45.10;;;;;;6218317;23;20396;-71
2023/04/20 01:11:38;;;;;;;4.70;3.67;;;8.60;44.90;;;;;;6223460;23;20213;-72
2023/04/20 01:14:05;;;;;;;5.00;4.27;;;8.40;45.00;;;;;;6225005;23;20385;-70
2023/04/20 01:16:33;;;;;;;6.87;4.00;;;8.50;45.30;;;;;;6194650;23;20384;-69
2023/04/20 01:18:59;;;;;;;4.90;3.40;;;8.40;45.40;;;;;;6221279;23;20158;-69
2023/04/20 01:21:25;;;;;;;7.83;3.50;;;8.30;45.70;;;;;;6220247;23;20722;-70
2023/04/20 01:23:51;;;;;;;7.53;4.70;;;8.30;45.80;;;;;;6192912;23;20377;-71
2023/04/20 01:26:18;;;;;;;8.03;4.33;;;8.30;46.10;;;;;;6193490;23;20445;-69
2023/04/20 01:28:45;;;;;;;5.77;3.83;;;8.50;46.50;;;;;;6220135;23;20435;-69
2023/04/20 01:31:11;;;;;;;5.30;3.80;;;8.50;46.70;;;;;;6193027;23;20476;-72
2023/04/20 01:33:37;;;;;;;6.77;4.17;;;8.40;47.00;;;;;;6219128;23;20464;-71
2023/04/20 01:36:04;;;;;;;5.03;3.50;;;8.40;47.20;;;;;;6219239;23;20357;-72
2023/04/20 01:38:31;;;;;;;6.93;4.00;;;8.30;47.40;;;;;;6192524;23;20150;-69
2023/04/20 01:41:01;;;;;;;8.50;3.70;;;8.30;47.70;;;;;;6192420;23;20504;-70
2023/04/20 01:43:27;;;;;;;6.17;4.00;;;8.30;48.00;;;;;;6218883;23;20368;-68
2023/04/20 01:45:52;;;;;;;7.87;4.43;;;8.30;48.10;;;;;;6219067;23;20432;-73
2023/04/20 01:48:18;;;;;;;5.20;4.10;;;8.30;48.50;;;;;;6193063;23;20153;-71
2023/04/20 01:50:43;;;;;;;7.13;3.90;;;8.20;48.50;;;;;;6218505;23;20157;-70
2023/04/20 01:53:12;;;;;;;8.10;3.73;;;8.20;48.80;;;;;;6219036;23;20134;-69
2023/04/20 01:55:38;;;;;;;9.60;4.40;;;8.20;49.00;;;;;;6221979;23;20832;-70
2023/04/20 01:58:03;;;;;;;6.43;4.27;;;8.20;49.00;;;;;;6230147;23;20366;-70
2023/04/20 02:00:29;;;;;;;5.20;4.30;;;8.20;49.10;;;;;;6204206;23;20429;-70
2023/04/20 02:02:57;;;;;;;6.00;4.03;;;8.20;49.30;;;;;;6220530;23;20154;-70
2023/04/20 02:05:23;;;;;;;5.20;4.00;;;8.20;49.30;;;;;;6218568;23;20361;-69
2023/04/20 02:07:50;;;;;;;8.17;4.13;;;8.20;49.60;;;;;;6192094;23;20145;-71
2023/04/20 02:10:15;;;;;;;8.70;3.87;;;8.20;50.30;;;;;;6218356;23;20189;-69
2023/04/20 02:12:44;;;;;;;6.03;3.87;;;8.30;49.80;;;;;;6192242;23;20709;-69
2023/04/20 02:15:09;;;;;;;5.73;4.10;;;8.20;49.80;;;;;;6192090;23;20369;-70
2023/04/20 02:17:35;;;;;;;6.23;4.27;;;8.20;50.00;;;;;;6191491;23;20184;-69
2023/04/20 02:20:05;;;;;;;4.10;3.43;;;8.10;50.30;;;;;;6217704;23;20166;-70
2023/04/20 02:22:34;;;;;;;4.97;3.70;;;8.10;50.40;;;;;;6218829;23;20357;-74
2023/04/20 02:25:00;;;;;;;8.50;4.30;;;8.10;50.60;;;;;;6218549;23;20487;-71
2023/04/20 02:27:27;;;;;;;4.90;3.63;;;8.10;50.70;;;;;;6220799;23;20403;-71
2023/04/20 02:29:52;;;;;;;4.50;3.20;;;8.10;50.80;;;;;;6218980;23;20388;-74
2023/04/20 02:32:18;;;;;;;4.97;4.00;;;8.00;50.90;;;;;;6192438;23;20499;-71
2023/04/20 02:34:43;;;;;;;8.90;4.57;;;8.00;51.10;;;;;;6218419;23;20219;-72
2023/04/20 02:37:09;;;;;;;6.37;4.53;;;8.00;51.10;;;;;;6192005;23;20150;-71
2023/04/20 02:39:35;;;;;;;5.60;4.13;;;8.00;51.20;;;;;;6217909;23;20241;-69
2023/04/20 02:42:00;;;;;;;5.43;3.83;;;8.00;51.30;;;;;;6191553;23;20252;-71
2023/04/20 02:44:27;;;;;;;5.00;4.50;;;8.00;51.40;;;;;;6191975;23;20508;-70
2023/04/20 02:46:53;;;;;;;9.73;4.97;;;8.00;51.40;;;;;;6218122;23;20448;-73
2023/04/20 02:49:20;;;;;;;7.90;4.17;;;8.00;51.50;;;;;;6191129;23;20884;-72
2023/04/20 02:51:46;;;;;;;6.23;4.10;;;8.00;51.60;;;;;;6191818;23;20365;-71
2023/04/20 02:54:12;;;;;;;7.57;4.53;;;8.00;51.60;;;;;;6218129;23;20224;-69
2023/04/20 02:56:37;;;;;;;7.10;3.97;;;8.00;51.70;;;;;;6218718;23;20575;-69
2023/04/20 02:59:08;;;;;;;5.67;3.80;;;8.00;51.30;;;;;;6197726;23;20174;-70
2023/04/20 03:01:36;;;;;;;6.00;4.73;;;7.90;51.00;;;;;;6226946;23;20464;-69
2023/04/20 03:04:15;;;;;;;7.40;3.47;;;7.90;50.60;;;;;;6223451;23;20357;-73
2023/04/20 03:06:57;;;;;;;4.33;3.10;;;7.90;50.20;;;;;;6178301;23;20370;-70
2023/04/20 03:09:27;;;;;;;5.60;3.40;;;7.80;50.00;;;;;;6208792;23;20400;-74
2023/04/20 03:12:11;;;;;;;5.10;3.43;;;7.80;50.00;;;;;;6206815;23;20425;-70
2023/04/20 03:15:10;;;;;;;7.53;4.30;;;7.80;49.90;;;;;;6208831;23;20450;-70
2023/04/20 03:18:11;;;;;;;2.87;2.43;;;7.80;49.60;;;;;;6211572;23;20408;-71
2023/04/20 03:20:39;;;;;;;7.20;3.27;;;7.80;49.50;;;;;;6217423;23;20461;-70
2023/04/20 03:23:05;;;;;;;4.83;3.23;;;7.80;49.50;;;;;;6219878;23;20841;-69
2023/04/20 03:25:31;;;;;;;5.13;3.70;;;7.80;49.30;;;;;;6192993;23;20460;-69
2023/04/20 03:27:58;;;;;;;5.40;2.70;;;7.80;49.30;;;;;;6217710;23;20670;-69
2023/04/20 03:30:24;;;;;;;6.57;3.87;;;7.80;49.20;;;;;;6190720;23;20427;-69
2023/04/20 03:33:00;;;;;;;6.17;4.23;;;7.80;49.10;;;;;;6194005;23;20392;-68
2023/04/20 03:35:26;;;;;;;5.83;3.53;;;7.80;48.40;;;;;;6217719;23;20375;-71
2023/04/20 03:37:52;;;;;;;4.83;3.60;;;7.80;48.30;;;;;;6217818;23;20361;-71
2023/04/20 03:40:17;;;;;;;7.80;3.77;;;7.80;47.90;;;;;;6190800;23;20186;-70
2023/04/20 03:42:43;;;;;;;4.90;3.50;;;7.70;47.90;;;;;;6218746;23;20201;-70
2023/04/20 03:45:09;;;;;;;8.63;4.70;;;7.70;48.00;;;;;;6191950;23;20146;-69
2023/04/20 03:47:34;;;;;;;4.97;3.17;;;7.90;47.20;;;;;;6219386;23;20297;-68
2023/04/20 03:50:00;;;;;;;6.17;4.40;;;7.90;46.90;;;;;;6193394;23;20397;-70
2023/04/20 03:52:26;;;;;;;5.93;3.90;;;7.90;47.00;;;;;;6193237;23;20130;-72
2023/04/20 03:54:52;;;;;;;5.50;3.30;;;7.80;46.90;;;;;;6194030;23;20146;-69
2023/04/20 03:57:17;;;;;;;3.97;3.57;;;7.80;47.30;;;;;;6221410;23;20408;-68
2023/04/20 03:59:43;;;;;;;4.97;3.10;;;7.70;47.40;;;;;;6195046;23;20166;-70
2023/04/20 04:02:12;;;;;;;5.47;3.40;;;7.80;47.70;;;;;;6195770;23;20239;-69
2023/04/20 04:04:40;;;;;;;6.03;4.30;;;7.80;47.80;;;;;;6219696;23;20746;-70
2023/04/20 04:07:06;;;;;;;6.93;4.00;;;7.80;48.00;;;;;;6219036;23;20399;-68
2023/04/20 04:09:32;;;;;;;7.10;3.63;;;7.80;48.10;;;;;;6219239;23;20158;-69
2023/04/20 04:11:57;;;;;;;5.57;3.50;;;7.70;48.30;;;;;;6187607;23;20457;-72
2023/04/20 04:14:23;;;;;;;5.13;3.20;;;7.70;48.40;;;;;;6192767;23;20177;-71
2023/04/20 04:16:49;;;;;;;9.03;4.00;;;7.70;48.60;;;;;;6189703;23;20442;-72
2023/04/20 04:19:15;;;;;;;5.30;3.67;;;7.60;48.50;;;;;;6188028;23;20174;-71
2023/04/20 04:21:42;;;;;;;4.73;3.30;;;7.60;48.40;;;;;;6188655;23;20178;-71
2023/04/20 04:24:08;;;;;;;7.90;3.50;;;7.60;48.60;;;;;;6188100;23;20702;-71
2023/04/20 04:26:44;;;;;;;10.00;3.83;;;7.50;48.70;;;;;;6195580;23;20377;-71
2023/04/20 04:29:11;;;;;;;6.10;3.70;;;7.60;48.90;;;;;;6197234;23;20397;-72
2023/04/20 04:31:36;;;;;;;5.80;3.60;;;7.70;49.10;;;;;;6194151;23;20700;-70
2023/04/20 04:34:09;;;;;;;5.37;3.27;;;7.70;49.30;;;;;;6187362;23;20159;-71
2023/04/20 04:36:42;;;;;;;5.93;3.87;;;7.70;49.40;;;;;;6188374;23;20863;-72
2023/04/20 04:39:12;;;;;;;9.80;4.13;;;7.70;49.60;;;;;;6189152;23;20464;-70
2023/04/20 04:41:42;;;;;;;6.63;4.33;;;7.70;50.10;;;;;;6188264;23;20421;-72
2023/04/20 04:44:17;;;;;;;6.20;3.90;;;7.80;50.40;;;;;;6187687;23;20412;-71
2023/04/20 04:46:44;;;;;;;5.37;4.30;;;7.90;50.60;;;;;;6187352;23;20787;-71
2023/04/20 04:49:10;;;;;;;4.97;4.23;;;8.00;51.30;;;;;;6187295;23;20200;-73
2023/04/20 04:51:36;;;;;;;4.70;3.93;;;8.00;51.80;;;;;;6189431;23;20787;-70
2023/04/20 04:54:01;;;;;;;7.20;4.23;;;7.90;52.10;;;;;;6189884;23;20417;-71
2023/04/20 04:56:27;;;;;;;10.63;4.23;;;7.90;52.80;;;;;;6188716;23;20474;-72
2023/04/20 04:58:53;;;;;;;8.53;4.40;;;7.90;53.10;;;;;;6188389;23;20385;-69
2023/04/20 05:01:19;;;;;;;5.87;4.10;;;7.80;53.80;;;;;;6191434;23;20170;-73
2023/04/20 05:03:45;;;;;;;5.97;4.07;;;7.70;54.00;;;;;;6194546;23;20139;-72
2023/04/20 05:06:11;;;;;;;8.07;4.53;;;7.70;54.70;;;;;;6195099;23;20366;-70
2023/04/20 05:08:37;;;;;;;8.33;4.57;;;7.70;54.60;;;;;;6193743;23;20357;-70
2023/04/20 05:11:02;;;;;;;9.17;3.80;;;7.70;55.10;;;;;;6195182;23;20585;-71
2023/04/20 05:13:28;;;;;;;7.53;5.03;;;7.60;55.90;;;;;;6198633;23;20138;-72
2023/04/20 05:15:54;;;;;;;10.20;5.30;;;7.60;56.60;;;;;;6199618;23;20157;-73
2023/04/20 05:18:19;;;;;;;9.07;5.13;;;7.50;57.20;;;;;;6224290;23;20134;-71
2023/04/20 05:20:45;;;;;;;7.83;5.57;;;7.60;58.40;;;;;;6224365;23;20221;-70
2023/04/20 05:23:10;;;;;;;10.93;5.70;;;7.60;59.80;;;;;;6226077;23;20566;-71
2023/04/20 05:25:37;;;;;;;10.87;4.57;;;7.40;60.80;;;;;;6226766;23;20182;-73
2023/04/20 05:28:03;;;;;;;7.70;4.80;;;7.30;62.20;;;;;;6174409;23;20377;-74
2023/04/20 05:30:29;;;;;;;7.90;5.20;;;7.30;64.10;;;;;;6200239;23;20169;-71
2023/04/20 05:32:55;;;;;;;13.80;5.97;;;7.20;65.30;;;;;;6173970;23;20431;-71
2023/04/20 05:35:21;;;;;;;7.53;5.20;;;7.40;65.00;;;;;;6199684;23;20146;-74
2023/04/20 05:37:47;;;;;;;7.73;5.13;;;7.40;65.70;;;;;;6174119;23;20157;-70
2023/04/20 05:40:14;;;;;;;7.33;5.30;;;7.50;65.80;;;;;;6207653;23;20382;-75
2023/04/20 05:42:40;;;;;;;8.20;5.23;;;7.50;67.20;;;;;;6181579;23;20432;-71
2023/04/20 05:45:06;;;;;;;5.43;4.10;;;7.60;65.50;;;;;;6226522;23;20361;-71
2023/04/20 05:47:32;;;;;;;7.10;4.73;;;7.60;66.60;;;;;;6198654;23;20353;-75
2023/04/20 05:49:58;;;;;;;12.03;5.50;;;7.60;68.40;;;;;;6197865;23;20400;-73
2023/04/20 05:52:23;;;;;;;7.67;4.63;;;7.60;69.50;;;;;;6224686;23;20211;-75
2023/04/20 05:54:49;;;;;;;9.63;5.00;;;7.60;69.80;;;;;;6226707;23;20138;-75
2023/04/20 05:57:15;;;;;;;5.00;4.30;;;7.60;70.50;;;;;;6226524;23;20139;-70
2023/04/20 05:59:40;;;;;;;7.50;4.80;;;7.60;70.50;;;;;;6231150;23;20193;-72
2023/04/20 06:02:06;;;;;;;10.50;5.97;;;7.70;70.90;;;;;;6205916;23;20335;-74
2023/04/20 06:04:32;;;;;;;9.80;5.90;;;7.60;71.10;;;;;;6175053;23;20152;-72
2023/04/20 06:06:59;;;;;;;6.33;5.20;;;7.60;72.80;;;;;;6200335;23;20148;-73
2023/04/20 06:09:25;;;;;;;10.57;5.97;;;7.60;73.90;;;;;;6224501;23;20416;-71
2023/04/20 06:11:50;;;;;;;9.43;4.93;;;7.60;74.60;;;;;;6176591;23;20417;-72
2023/04/20 06:14:16;;;;;;;9.47;5.70;;;7.60;75.60;;;;;;6200544;23;20670;-71
2023/04/20 06:16:42;;;;;;;7.80;6.40;;;7.60;76.30;;;;;;6173391;23;20150;-73
2023/04/20 06:19:07;;;;;;;5.17;4.67;;;7.60;78.00;;;;;;6223065;23;20166;-72
2023/04/20 06:21:34;;;;;;;9.03;5.07;;;7.50;79.00;;;;;;6225000;23;20165;-72
2023/04/20 06:23:59;;;;;;;8.73;5.63;;;7.60;81.70;;;;;;6174421;23;20160;-73
2023/04/20 06:26:25;;;;;;;15.03;6.63;;;7.50;84.30;;;;;;6198990;23;20350;-73
2023/04/20 06:28:52;;;;;;;6.47;5.73;;;7.60;89.10;;;;;;6224977;23;20482;-72
2023/04/20 06:31:21;;;;;;;7.37;5.83;;;7.60;90.70;;;;;;6228157;23;20150;-72
2023/04/20 06:33:46;;;;;;;8.20;6.17;;;7.80;91.40;;;;;;6200628;23;20361;-71
2023/04/20 06:36:12;;;;;;;6.80;5.53;;;7.70;92.00;;;;;;6225387;23;20372;-72
2023/04/20 06:38:37;;;;;;;12.53;7.13;;;7.70;92.30;;;;;;6225605;23;20546;-73
2023/04/20 06:41:03;;;;;;;12.50;6.43;;;7.50;95.20;;;;;;6226163;23;20186;-73
2023/04/20 06:43:29;;;;;;;8.20;6.43;;;7.40;96.40;;;;;;6226681;23;20138;-75
2023/04/20 06:45:56;;;;;;;6.73;6.00;;;7.30;97.80;;;;;;6226368;23;20130;-71
2023/04/20 06:48:21;;;;;;;9.80;5.97;;;7.20;99.00;;;;;;6198777;23;20368;-73
2023/04/20 06:50:48;;;;;;;10.07;5.90;;;7.20;99.20;;;;;;6176785;23;20473;-74
2023/04/20 06:53:17;;;;;;;8.00;6.90;;;7.10;99.90;;;;;;6198913;23;20216;-73
2023/04/20 06:55:43;;;;;;;7.07;4.93;;;7.20;99.70;;;;;;6198854;23;20377;-73
2023/04/20 06:58:09;;;;;;;10.63;6.53;;;7.20;99.90;;;;;;6224396;23;20361;-74
2023/04/20 07:00:34;;;;;;;7.60;6.00;;;7.20;99.90;;;;;;6173972;23;20614;-74
2023/04/20 07:03:01;;;;;;;8.73;7.23;;;7.10;99.90;;;;;;6177947;23;20454;-74
2023/04/20 07:05:29;;;;;;;9.57;6.87;;;7.10;99.90;;;;;;6202023;23;20146;-75
2023/04/20 07:07:55;;;;;;;8.07;6.50;;;7.10;99.90;;;;;;6226690;23;20806;-75
2023/04/20 07:10:21;;;;;;;10.07;6.90;;;7.10;99.90;;;;;;6175171;23;20821;-72
2023/04/20 07:12:49;;;;;;;9.67;6.13;;;7.10;99.90;;;;;;6164574;23;20187;-75
2023/04/20 07:15:15;;;;;;;8.67;6.60;;;7.20;99.90;;;;;;6165237;23;20792;-72
2023/04/20 07:17:41;;;;;;;8.93;5.80;;;7.20;99.90;;;;;;6140295;23;20154;-73
2023/04/20 07:20:07;;;;;;;8.73;6.53;;;7.20;99.90;;;;;;6166247;23;20163;-74
2023/04/20 07:22:35;;;;;;;12.00;6.63;;;7.30;99.90;;;;;;6142507;23;20198;-74
2023/04/20 07:25:04;;;;;;;7.60;6.17;;;7.40;99.90;;;;;;6168208;23;20398;-76
2023/04/20 07:27:39;;;;;;;6.97;5.77;;;7.40;99.90;;;;;;6159487;23;20868;-72
2023/04/20 07:30:07;;;;;;;9.10;6.97;;;7.40;99.90;;;;;;6142197;23;20411;-73
2023/04/20 07:32:33;;;;;;;8.73;6.70;;;7.50;99.90;;;;;;6117555;23;20429;-73
2023/04/20 07:34:59;;;;;;;8.17;5.60;;;7.60;99.90;;;;;;6144486;23;20375;-75
2023/04/20 07:37:26;;;;;;;9.83;6.23;;;7.60;99.90;;;;;;6170586;23;20427;-76
2023/04/20 07:39:52;;;;;;;6.90;5.47;;;7.70;99.90;;;;;;6173673;23;20167;-74
2023/04/20 07:42:18;;;;;;;6.90;5.80;;;7.90;99.90;;;;;;6168163;23;20410;-75
2023/04/20 07:44:44;;;;;;;6.10;5.40;;;8.10;99.90;;;;;;6146437;23;20486;-73
2023/04/20 07:47:10;;;;;;;6.13;5.47;;;8.20;99.90;;;;;;6173613;23;20375;-75
2023/04/20 07:49:36;;;;;;;7.57;5.73;;;8.30;99.90;;;;;;6168683;23;20170;-73
2023/04/20 07:52:02;;;;;;;8.20;5.30;;;8.50;99.90;;;;;;6167703;23;20171;-74
2023/04/20 07:54:28;;;;;;;6.30;5.03;;;8.60;99.90;;;;;;6169621;23;20367;-74
2023/04/20 07:56:54;;;;;;;5.80;4.43;;;8.70;99.90;;;;;;6167629;23;20374;-74
2023/04/20 07:59:20;;;;;;;6.90;4.87;;;8.70;99.90;;;;;;6166506;23;20628;-73
2023/04/20 08:01:45;;;;;;;4.80;4.00;;;8.70;99.90;;;;;;6170989;23;20198;-73
2023/04/20 08:04:11;;;;;;;4.40;4.00;;;8.70;99.50;;;;;;6170492;23;20139;-74
2023/04/20 08:06:37;;;;;;;4.83;4.00;;;8.70;99.30;;;;;;6170009;23;20127;-74
2023/04/20 08:09:02;;;;;;;5.50;4.43;;;8.60;98.50;;;;;;6141877;23;20170;-73
2023/04/20 08:11:28;;;;;;;4.07;3.60;;;8.50;99.90;;;;;;6179952;23;20268;-71
2023/04/20 08:13:54;;;;;;;4.67;3.90;;;8.60;99.90;;;;;;6201321;23;20161;-73
2023/04/20 08:16:22;;;;;;;3.80;3.40;;;8.70;99.90;;;;;;6177101;23;20381;-74
2023/04/20 08:18:47;;;;;;;4.90;3.97;;;8.70;99.40;;;;;;6176844;23;20166;-74
2023/04/20 08:21:13;;;;;;;4.00;3.57;;;8.80;98.50;;;;;;6203608;23;20416;-75
2023/04/20 08:23:39;;;;;;;5.27;4.40;;;8.70;99.20;;;;;;6228251;23;20134;-73
2023/04/20 08:26:04;;;;;;;4.17;3.73;;;8.80;98.60;;;;;;6175674;23;20146;-72
2023/04/20 08:28:30;;;;;;;3.83;3.43;;;8.80;98.50;;;;;;6175943;23;20158;-72
2023/04/20 08:30:55;;;;;;;6.40;3.87;;;8.70;99.40;;;;;;6201170;23;20169;-71
2023/04/20 08:33:21;;;;;;;4.03;3.63;;;8.60;99.30;;;;;;6204324;23;20134;-75
2023/04/20 08:35:49;;;;;;;4.17;3.60;;;8.50;99.20;;;;;;6201721;23;20177;-73
2023/04/20 08:38:15;;;;;;;4.60;3.63;;;8.60;98.40;;;;;;6202077;23;20384;-74
2023/04/20 08:40:41;;;;;;;4.27;3.87;;;8.60;97.80;;;;;;6204294;23;20416;-74
2023/04/20 08:43:09;;;;;;;4.40;3.20;;;8.60;96.60;;;;;;6230263;23;20141;-73
2023/04/20 08:45:36;;;;;;;3.97;3.57;;;8.70;96.40;;;;;;6232741;23;20361;-76
2023/04/20 08:48:09;;;;;;;3.50;3.10;;;8.70;97.00;;;;;;6202757;23;20373;-76
2023/04/20 08:50:36;;;;;;;4.33;3.07;;;8.60;97.40;;;;;;6202388;23;20425;-74
2023/04/20 08:53:03;;;;;;;2.97;2.70;;;8.70;97.20;;;;;;6178500;23;20452;-74
2023/04/20 08:55:29;;;;;;;5.00;3.40;;;8.90;94.40;;;;;;6205266;23;20436;-74
2023/04/20 08:57:54;;;;;;;3.93;3.30;;;9.20;91.30;;;;;;6177005;23;20388;-74
2023/04/20 09:00:20;;;;;;;3.73;3.20;;;9.30;90.90;;;;;;6205365;23;20412;-74
2023/04/20 09:02:53;;;;;;;4.50;3.80;;;9.40;91.20;;;;;;6181791;23;20173;-73
2023/04/20 09:05:30;;;;;;;5.13;3.33;;;9.50;91.30;;;;;;6182337;23;20399;-76
2023/04/20 09:08:01;;;;;;;3.90;3.13;;;9.60;90.80;;;;;;6182793;23;20662;-71
2023/04/20 09:10:41;;;;;;;2.80;2.50;;;9.70;87.60;;;;;;6206197;23;20396;-75
2023/04/20 09:13:08;;;;;;;3.70;3.13;;;9.90;82.20;;;;;;6230872;23;20837;-73
2023/04/20 09:15:34;;;;;;;4.60;3.80;;;10.00;76.10;;;;;;6183201;23;20860;-75
2023/04/20 09:18:10;;;;;;;6.70;3.60;;;10.00;72.20;;;;;;6233338;23;20416;-74
2023/04/20 09:20:36;;;;;;;3.97;3.40;;;9.90;74.60;;;;;;6182548;23;20181;-75
2023/04/20 09:23:31;;;;;;;4.33;3.63;;;9.80;77.90;;;;;;6208386;23;20365;-76
2023/04/20 09:25:57;;;;;;;3.20;2.70;;;9.70;80.80;;;;;;6156922;23;20150;-74
2023/04/20 09:28:23;;;;;;;5.80;3.60;;;9.70;82.10;;;;;;6208621;23;20372;-75
2023/04/20 09:30:50;;;;;;;3.60;2.80;;;9.70;80.90;;;;;;6182484;23;20174;-75
2023/04/20 09:33:18;;;;;;;3.30;3.00;;;9.60;80.40;;;;;;6186448;23;20376;-75
2023/04/20 09:35:44;;;;;;;3.50;3.20;;;9.40;89.60;;;;;;6187356;23;20372;-75
2023/04/20 09:38:14;;;;;;;4.57;4.10;;;9.10;95.90;;;;;;6206028;23;20443;-76
2023/04/20 09:41:18;;;;;;;4.80;3.40;;;8.50;99.70;;;;;;6206688;23;20408;-75
2023/04/20 09:43:45;;;;;;;4.37;3.60;;;8.10;99.90;;;;;;6182529;23;20783;-75
2023/04/20 09:46:18;;;;;;;5.50;4.93;;;7.90;99.90;;;;;;6181790;23;20381;-75
2023/04/20 09:48:44;;;;;;;4.97;4.13;;;7.90;99.90;;;;;;6182143;23;20480;-76
2023/04/20 09:51:11;;;;;;;4.43;4.03;;;7.90;99.90;;;;;;6209288;23;20384;-74
2023/04/20 09:53:38;;;;;;;4.37;3.87;;;8.00;99.90;;;;;;6207513;23;20446;-75
2023/04/20 09:56:05;;;;;;;5.43;4.57;;;8.10;99.90;;;;;;6183759;23;20369;-77
2023/04/20 09:58:31;;;;;;;3.80;3.13;;;8.30;99.90;;;;;;6207803;23;20381;-74
2023/04/20 10:00:57;;;;;;;3.23;2.50;;;8.50;99.90;;;;;;6206301;23;20416;-76
2023/04/20 10:03:23;;;;;;;3.10;1.27;;;8.70;99.90;;;;;;6211057;23;20997;-76
2023/04/20 10:05:48;;;;;;;1.50;1.30;;;8.70;99.90;;;;;;6186698;23;20189;-75
2023/04/20 10:08:14;;;;;;;2.50;1.43;;;8.50;99.90;;;;;;6210002;23;20149;-75
2023/04/20 10:10:50;;;;;;;2.60;1.00;;;8.30;99.90;;;;;;6208705;23;20174;-75
2023/04/20 10:13:18;;;;;;;1.43;1.03;;;8.10;99.90;;;;;;6182574;23;20276;-72
2023/04/20 10:15:43;;;;;;;1.27;1.00;;;8.10;99.90;;;;;;6239577;23;20372;-76
2023/04/20 10:18:22;;;;;;;1.77;1.13;;;8.40;99.90;;;;;;6235531;23;20361;-75
2023/04/20 10:20:48;;;;;;;3.83;2.17;;;8.60;99.90;;;;;;6208775;23;20186;-76
2023/04/20 10:23:15;;;;;;;2.00;1.30;;;9.00;99.90;;;;;;6206928;23;20364;-78
2023/04/20 10:25:41;;;;;;;1.47;0.93;;;9.30;99.90;;;;;;6212273;23;20349;-76
2023/04/20 10:28:09;;;;;;;2.57;1.90;;;9.70;99.90;;;;;;6213056;23;20816;-76
2023/04/20 10:30:36;;;;;;;1.83;1.43;;;9.90;99.90;;;;;;6208440;23;20725;-75
2023/04/20 10:33:11;;;;;;;1.33;1.10;;;10.20;99.90;;;;;;6207246;23;20373;-76
2023/04/20 10:35:41;;;;;;;3.27;1.67;;;10.50;99.90;;;;;;6235703;23;20447;-76
2023/04/20 10:38:10;;;;;;;2.67;2.30;;;10.70;98.50;;;;;;6208970;23;20361;-76
2023/04/20 10:40:36;;;;;;;1.67;1.30;;;10.90;99.00;;;;;;6235852;23;20423;-76
2023/04/20 10:43:02;;;;;;;1.53;1.30;;;11.20;96.40;;;;;;6209527;23;20373;-76
2023/04/20 10:45:35;;;;;;;1.00;0.90;;;11.30;93.50;;;;;;6186132;23;20778;-77
2023/04/20 10:48:10;;;;;;;2.10;1.23;;;11.60;92.40;;;;;;6184442;23;20373;-77
2023/04/20 10:50:37;;;;;;;2.17;1.77;;;11.80;91.50;;;;;;6208189;23;20384;-75
2023/04/20 10:53:03;;;;;;;1.57;1.10;;;12.00;80.60;;;;;;6183091;23;20373;-77
2023/04/20 10:55:29;;;;;;;2.67;1.87;;;12.30;76.10;;;;;;6184563;23;20433;-78
2023/04/20 10:57:55;;;;;;;1.77;1.17;;;12.30;81.90;;;;;;6206367;23;20369;-75
2023/04/20 11:00:26;;;;;;;1.67;1.20;;;12.30;84.00;;;;;;6235266;23;20432;-76
2023/04/20 11:02:53;;;;;;;1.47;1.10;;;12.30;66.90;;;;;;6210196;23;20168;-76
2023/04/20 11:05:20;;;;;;;1.50;1.07;;;12.10;66.50;;;;;;6185845;23;20377;-77
2023/04/20 11:07:53;;;;;;;2.10;1.43;;;11.80;62.20;;;;;;6183491;23;20374;-73
2023/04/20 11:10:24;;;;;;;1.70;1.20;;;11.30;67.50;;;;;;6211797;23;20393;-77
2023/04/20 11:12:50;;;;;;;2.00;0.97;;;11.30;82.50;;;;;;6208705;23;20445;-77
2023/04/20 11:15:16;;;;;;;0.90;0.70;;;11.70;72.30;;;;;;6237931;23;20360;-77
2023/04/20 11:17:42;;;;;;;2.70;1.33;;;11.90;64.20;;;;;;6213970;23;20369;-77
2023/04/20 11:20:11;;;;;;;1.63;1.00;;;12.00;64.20;;;;;;6186187;23;20456;-76
2023/04/20 11:22:38;;;;;;;3.67;1.20;;;12.40;55.70;;;;;;6214326;23;20353;-76
2023/04/20 11:25:05;;;;;;;1.50;1.10;;;12.40;54.00;;;;;;6214453;23;20361;-77
2023/04/20 11:27:35;;;;;;;1.60;1.20;;;12.10;55.50;;;;;;6213200;23;20405;-77
2023/04/20 11:30:04;;;;;;;1.50;1.30;;;12.30;54.10;;;;;;6187471;23;20385;-76
2023/04/20 11:32:33;;;;;;;1.60;1.20;;;12.10;54.60;;;;;;6212385;23;20384;-78
2023/04/20 11:35:08;;;;;;;1.90;1.23;;;12.20;55.10;;;;;;6214526;23;20351;-76
2023/04/20 11:37:49;;;;;;;2.23;1.60;;;12.60;54.30;;;;;;6209031;23;20352;-76
2023/04/20 11:40:16;;;;;;;1.20;0.90;;;12.90;52.80;;;;;;6211367;23;20405;-78
2023/04/20 11:42:42;;;;;;;1.40;1.10;;;13.10;51.20;;;;;;6208458;23;20631;-75
2023/04/20 11:45:10;;;;;;;4.17;2.30;;;12.80;51.40;;;;;;6185791;23;20357;-77
2023/04/20 11:47:39;;;;;;;2.20;1.70;;;12.40;53.10;;;;;;6187045;23;20365;-77
2023/04/20 11:50:05;;;;;;;1.53;1.07;;;12.20;53.50;;;;;;6186421;23;20401;-76
2023/04/20 11:52:31;;;;;;;1.97;1.30;;;12.10;53.80;;;;;;6182441;23;20377;-75
2023/04/20 11:54:56;;;;;;;2.10;1.80;;;12.10;54.40;;;;;;6208676;23;20883;-76
2023/04/20 11:57:24;;;;;;;2.60;2.20;;;12.00;54.10;;;;;;6234698;23;20144;-76
2023/04/20 11:59:50;;;;;;;2.77;2.20;;;11.80;54.30;;;;;;6209867;23;20165;-77
2023/04/20 12:02:16;;;;;;;2.50;1.83;;;11.80;54.40;;;;;;6214614;23;20424;-77
2023/04/20 12:04:41;;;;;;;5.13;2.27;;;11.90;54.50;;;;;;6187943;23;20145;-76
2023/04/20 12:07:07;;;;;;;2.97;2.60;;;12.10;54.60;;;;;;6233018;23;20130;-76
2023/04/20 12:09:37;;;;;;;6.00;3.50;;;12.00;53.90;;;;;;6187179;23;20170;-75
2023/04/20 12:12:03;;;;;;;4.47;3.40;;;12.20;54.30;;;;;;6208483;23;20189;-76
2023/04/20 12:14:32;;;;;;;5.20;3.47;;;12.40;52.70;;;;;;6186970;23;20381;-76
2023/04/20 12:17:02;;;;;;;5.70;3.80;;;12.60;51.20;;;;;;6234556;23;20429;-76
2023/04/20 12:19:28;;;;;;;3.80;3.13;;;12.60;50.70;;;;;;6186292;23;20393;-78
2023/04/20 12:21:54;;;;;;;3.37;3.07;;;12.70;50.70;;;;;;6186677;23;20407;-76
2023/04/20 12:24:20;;;;;;;3.70;2.70;;;12.80;51.40;;;;;;6189918;23;20147;-77
2023/04/20 12:26:46;;;;;;;3.60;2.90;;;13.00;51.00;;;;;;6186506;23;20392;-77
2023/04/20 12:29:12;;;;;;;3.17;2.60;;;13.00;50.70;;;;;;6185918;23;20452;-77
2023/04/20 12:31:38;;;;;;;3.40;2.33;;;13.10;51.30;;;;;;6210388;23;20444;-77
2023/04/20 12:34:04;;;;;;;3.80;3.00;;;13.20;50.10;;;;;;6211930;23;20359;-76
2023/04/20 12:36:31;;;;;;;4.70;2.53;;;13.30;49.10;;;;;;6188177;23;20230;-77
2023/04/20 12:38:57;;;;;;;3.63;3.23;;;13.30;49.20;;;;;;6185421;23;20241;-77
2023/04/20 12:41:23;;;;;;;3.30;2.67;;;13.40;48.70;;;;;;6188403;23;20447;-75
2023/04/20 12:43:52;;;;;;;5.50;3.20;;;13.40;48.90;;;;;;6184275;23;20380;-78
2023/04/20 12:46:18;;;;;;;2.90;2.60;;;13.40;48.80;;;;;;6184024;23;20381;-78
2023/04/20 12:48:46;;;;;;;3.27;2.97;;;13.40;47.90;;;;;;6237735;23;20444;-76
2023/04/20 12:51:14;;;;;;;3.30;2.90;;;13.30;47.90;;;;;;6213164;23;20169;-77
2023/04/20 12:53:40;;;;;;;4.20;3.53;;;13.40;47.50;;;;;;6210834;23;20392;-76
2023/04/20 12:56:06;;;;;;;4.13;3.20;;;13.20;47.70;;;;;;6185122;23;20361;-75